sensor_id;sensor_type;location;lat;lon;timestamp;P1;durP1;ratioP1;P2;durP2;ratioP2
17330;SDS011;8783;52.448;4.638;2023-12-20T00:01:46;7.82;;;1.85;;
17330;SDS011;8783;52.448;4.638;2023-12-20T00:04:12;7.43;;;2.40;;
17330;SDS011;8783;52.448;4.638;2023-12-20T00:06:37;6.75;;;1.80;;
17330;SDS011;8783;52.448;4.638;2023-12-20T00:09:03;8.60;;;2.30;;
17330;SDS011;8783;52.448;4.638;2023-12-20T00:11:28;8.30;;;2.00;;
17330;SDS011;8783;52.448;4.638;2023-12-20T00:13:54;5.43;;;1.98;;
17330;SDS011;8783;52.448;4.638;2023-12-20T00:16:19;6.43;;;1.75;;
17330;SDS011;8783;52.448;4.638;2023-12-20T00:18:45;8.20;;;2.20;;
17330;SDS011;8783;52.448;4.638;2023-12-20T00:21:10;7.30;;;1.80;;
17330;SDS011;8783;52.448;4.638;2023-12-20T00:23:36;6.07;;;1.88;;
17330;SDS011;8783;52.448;4.638;2023-12-20T00:26:02;6.05;;;1.70;;
17330;SDS011;8783;52.448;4.638;2023-12-20T00:28:27;7.15;;;1.80;;
17330;SDS011;8783;52.448;4.638;2023-12-20T00:30:53;6.95;;;2.08;;
17330;SDS011;8783;52.448;4.638;2023-12-20T00:33:19;7.82;;;2.33;;
17330;SDS011;8783;52.448;4.638;2023-12-20T00:35:44;8.02;;;1.98;;
17330;SDS011;8783;52.448;4.638;2023-12-20T00:38:10;6.25;;;1.90;;
17330;SDS011;8783;52.448;4.638;2023-12-20T00:40:36;8.73;;;2.00;;
17330;SDS011;8783;52.448;4.638;2023-12-20T00:43:02;6.03;;;2.10;;
17330;SDS011;8783;52.448;4.638;2023-12-20T00:45:28;8.93;;;2.15;;
17330;SDS011;8783;52.448;4.638;2023-12-20T00:47:54;7.97;;;2.25;;
17330;SDS011;8783;52.448;4.638;2023-12-20T00:50:19;7.35;;;1.98;;
17330;SDS011;8783;52.448;4.638;2023-12-20T00:52:46;7.43;;;2.05;;
17330;SDS011;8783;52.448;4.638;2023-12-20T00:55:12;7.82;;;1.70;;
17330;SDS011;8783;52.448;4.638;2023-12-20T00:57:38;6.88;;;1.95;;
17330;SDS011;8783;52.448;4.638;2023-12-20T01:00:05;7.50;;;2.05;;
17330;SDS011;8783;52.448;4.638;2023-12-20T01:02:31;7.32;;;2.13;;
17330;SDS011;8783;52.448;4.638;2023-12-20T01:04:56;8.75;;;2.00;;
17330;SDS011;8783;52.448;4.638;2023-12-20T01:07:22;5.97;;;1.98;;
17330;SDS011;8783;52.448;4.638;2023-12-20T01:09:47;6.20;;;1.65;;
17330;SDS011;8783;52.448;4.638;2023-12-20T01:12:13;7.05;;;1.70;;
17330;SDS011;8783;52.448;4.638;2023-12-20T01:14:39;9.18;;;2.22;;
17330;SDS011;8783;52.448;4.638;2023-12-20T01:17:05;7.20;;;2.17;;
17330;SDS011;8783;52.448;4.638;2023-12-20T01:19:30;5.72;;;2.05;;
17330;SDS011;8783;52.448;4.638;2023-12-20T01:21:56;8.02;;;2.00;;
17330;SDS011;8783;52.448;4.638;2023-12-20T01:24:22;8.40;;;2.13;;
17330;SDS011;8783;52.448;4.638;2023-12-20T01:26:47;11.07;;;2.17;;
17330;SDS011;8783;52.448;4.638;2023-12-20T01:29:13;7.40;;;2.13;;
17330;SDS011;8783;52.448;4.638;2023-12-20T01:31:39;9.10;;;2.30;;
17330;SDS011;8783;52.448;4.638;2023-12-20T01:34:05;10.02;;;2.35;;
17330;SDS011;8783;52.448;4.638;2023-12-20T01:36:31;10.70;;;2.45;;
17330;SDS011;8783;52.448;4.638;2023-12-20T01:38:57;6.25;;;1.80;;
17330;SDS011;8783;52.448;4.638;2023-12-20T01:41:22;9.15;;;2.47;;
17330;SDS011;8783;52.448;4.638;2023-12-20T01:43:48;9.60;;;2.08;;
17330;SDS011;8783;52.448;4.638;2023-12-20T01:46:14;8.75;;;2.03;;
17330;SDS011;8783;52.448;4.638;2023-12-20T01:48:40;9.07;;;2.20;;
17330;SDS011;8783;52.448;4.638;2023-12-20T01:51:06;7.05;;;1.90;;
17330;SDS011;8783;52.448;4.638;2023-12-20T01:53:32;8.85;;;2.08;;
17330;SDS011;8783;52.448;4.638;2023-12-20T01:55:58;6.85;;;2.00;;
17330;SDS011;8783;52.448;4.638;2023-12-20T01:58:25;9.15;;;2.22;;
17330;SDS011;8783;52.448;4.638;2023-12-20T02:00:51;7.43;;;1.98;;
17330;SDS011;8783;52.448;4.638;2023-12-20T02:03:16;8.63;;;2.20;;
17330;SDS011;8783;52.448;4.638;2023-12-20T02:05:44;7.80;;;1.90;;
17330;SDS011;8783;52.448;4.638;2023-12-20T02:08:10;9.02;;;2.13;;
17330;SDS011;8783;52.448;4.638;2023-12-20T02:10:36;7.60;;;2.13;;
17330;SDS011;8783;52.448;4.638;2023-12-20T02:13:02;7.80;;;2.15;;
17330;SDS011;8783;52.448;4.638;2023-12-20T02:15:29;7.65;;;1.90;;
17330;SDS011;8783;52.448;4.638;2023-12-20T02:17:54;6.53;;;1.90;;
17330;SDS011;8783;52.448;4.638;2023-12-20T02:20:20;7.25;;;2.08;;
17330;SDS011;8783;52.448;4.638;2023-12-20T02:22:46;6.47;;;2.05;;
17330;SDS011;8783;52.448;4.638;2023-12-20T02:25:12;6.35;;;1.55;;
17330;SDS011;8783;52.448;4.638;2023-12-20T02:27:37;11.80;;;2.40;;
17330;SDS011;8783;52.448;4.638;2023-12-20T02:30:04;9.38;;;2.20;;
17330;SDS011;8783;52.448;4.638;2023-12-20T02:32:30;6.47;;;2.00;;
17330;SDS011;8783;52.448;4.638;2023-12-20T02:34:56;6.78;;;1.88;;
17330;SDS011;8783;52.448;4.638;2023-12-20T02:37:22;8.15;;;2.30;;
17330;SDS011;8783;52.448;4.638;2023-12-20T02:39:48;9.27;;;2.10;;
17330;SDS011;8783;52.448;4.638;2023-12-20T02:42:13;9.32;;;1.95;;
17330;SDS011;8783;52.448;4.638;2023-12-20T02:44:39;8.10;;;1.98;;
17330;SDS011;8783;52.448;4.638;2023-12-20T02:47:04;11.80;;;2.85;;
17330;SDS011;8783;52.448;4.638;2023-12-20T02:49:30;7.75;;;2.33;;
17330;SDS011;8783;52.448;4.638;2023-12-20T02:51:56;9.30;;;2.20;;
17330;SDS011;8783;52.448;4.638;2023-12-20T02:54:21;7.82;;;2.20;;
17330;SDS011;8783;52.448;4.638;2023-12-20T02:56:47;11.13;;;2.47;;
17330;SDS011;8783;52.448;4.638;2023-12-20T02:59:13;8.30;;;2.35;;
17330;SDS011;8783;52.448;4.638;2023-12-20T03:01:43;8.27;;;2.35;;
17330;SDS011;8783;52.448;4.638;2023-12-20T03:04:09;6.97;;;1.77;;
17330;SDS011;8783;52.448;4.638;2023-12-20T03:06:35;8.15;;;1.90;;
17330;SDS011;8783;52.448;4.638;2023-12-20T03:09:01;11.70;;;2.38;;
17330;SDS011;8783;52.448;4.638;2023-12-20T03:11:27;8.73;;;2.20;;
17330;SDS011;8783;52.448;4.638;2023-12-20T03:13:53;9.52;;;2.47;;
17330;SDS011;8783;52.448;4.638;2023-12-20T03:16:19;10.32;;;2.47;;
17330;SDS011;8783;52.448;4.638;2023-12-20T03:18:45;9.18;;;2.30;;
17330;SDS011;8783;52.448;4.638;2023-12-20T03:21:10;9.57;;;2.28;;
17330;SDS011;8783;52.448;4.638;2023-12-20T03:23:36;9.13;;;2.08;;
17330;SDS011;8783;52.448;4.638;2023-12-20T03:26:01;9.10;;;1.83;;
17330;SDS011;8783;52.448;4.638;2023-12-20T03:28:28;7.65;;;2.13;;
17330;SDS011;8783;52.448;4.638;2023-12-20T03:30:54;9.95;;;2.22;;
17330;SDS011;8783;52.448;4.638;2023-12-20T03:33:20;10.18;;;2.20;;
17330;SDS011;8783;52.448;4.638;2023-12-20T03:35:45;6.90;;;1.95;;
17330;SDS011;8783;52.448;4.638;2023-12-20T03:38:11;9.43;;;2.25;;
17330;SDS011;8783;52.448;4.638;2023-12-20T03:40:36;8.50;;;2.20;;
17330;SDS011;8783;52.448;4.638;2023-12-20T03:43:02;10.30;;;2.20;;
17330;SDS011;8783;52.448;4.638;2023-12-20T03:45:28;8.95;;;2.40;;
17330;SDS011;8783;52.448;4.638;2023-12-20T03:47:53;8.75;;;2.28;;
17330;SDS011;8783;52.448;4.638;2023-12-20T03:50:22;9.23;;;2.72;;
17330;SDS011;8783;52.448;4.638;2023-12-20T03:52:48;5.18;;;1.70;;
17330;SDS011;8783;52.448;4.638;2023-12-20T03:55:14;12.65;;;2.40;;
17330;SDS011;8783;52.448;4.638;2023-12-20T03:57:40;10.32;;;2.47;;
17330;SDS011;8783;52.448;4.638;2023-12-20T04:00:06;8.27;;;2.05;;
17330;SDS011;8783;52.448;4.638;2023-12-20T04:02:35;8.98;;;2.08;;
17330;SDS011;8783;52.448;4.638;2023-12-20T04:05:10;8.82;;;2.35;;
17330;SDS011;8783;52.448;4.638;2023-12-20T04:07:36;7.55;;;2.28;;
17330;SDS011;8783;52.448;4.638;2023-12-20T04:10:02;12.68;;;2.80;;
17330;SDS011;8783;52.448;4.638;2023-12-20T04:12:28;7.18;;;2.28;;
17330;SDS011;8783;52.448;4.638;2023-12-20T04:14:54;9.80;;;2.55;;
17330;SDS011;8783;52.448;4.638;2023-12-20T04:17:20;13.05;;;2.28;;
17330;SDS011;8783;52.448;4.638;2023-12-20T04:19:47;10.02;;;2.10;;
17330;SDS011;8783;52.448;4.638;2023-12-20T04:22:19;11.02;;;2.38;;
17330;SDS011;8783;52.448;4.638;2023-12-20T04:24:45;6.70;;;2.25;;
17330;SDS011;8783;52.448;4.638;2023-12-20T04:27:11;10.10;;;2.13;;
17330;SDS011;8783;52.448;4.638;2023-12-20T04:29:37;10.18;;;1.95;;
17330;SDS011;8783;52.448;4.638;2023-12-20T04:32:02;8.77;;;2.20;;
17330;SDS011;8783;52.448;4.638;2023-12-20T04:34:29;8.10;;;2.00;;
17330;SDS011;8783;52.448;4.638;2023-12-20T04:36:54;12.02;;;2.28;;
17330;SDS011;8783;52.448;4.638;2023-12-20T04:39:20;9.27;;;2.50;;
17330;SDS011;8783;52.448;4.638;2023-12-20T04:41:46;8.50;;;2.30;;
17330;SDS011;8783;52.448;4.638;2023-12-20T04:44:12;9.02;;;2.25;;
17330;SDS011;8783;52.448;4.638;2023-12-20T04:46:38;11.43;;;2.70;;
17330;SDS011;8783;52.448;4.638;2023-12-20T04:49:04;8.45;;;2.10;;
17330;SDS011;8783;52.448;4.638;2023-12-20T04:51:30;10.73;;;2.60;;
17330;SDS011;8783;52.448;4.638;2023-12-20T04:53:58;12.00;;;2.20;;
17330;SDS011;8783;52.448;4.638;2023-12-20T04:56:24;8.48;;;2.40;;
17330;SDS011;8783;52.448;4.638;2023-12-20T04:58:49;9.65;;;2.10;;
17330;SDS011;8783;52.448;4.638;2023-12-20T05:01:15;10.30;;;2.30;;
17330;SDS011;8783;52.448;4.638;2023-12-20T05:03:41;10.05;;;2.20;;
17330;SDS011;8783;52.448;4.638;2023-12-20T05:06:06;8.10;;;2.28;;
17330;SDS011;8783;52.448;4.638;2023-12-20T05:08:32;10.02;;;2.35;;
17330;SDS011;8783;52.448;4.638;2023-12-20T05:10:57;10.48;;;2.85;;
17330;SDS011;8783;52.448;4.638;2023-12-20T05:13:23;7.18;;;2.10;;
17330;SDS011;8783;52.448;4.638;2023-12-20T05:15:48;10.65;;;2.63;;
17330;SDS011;8783;52.448;4.638;2023-12-20T05:18:14;9.25;;;2.55;;
17330;SDS011;8783;52.448;4.638;2023-12-20T05:20:40;10.93;;;2.13;;
17330;SDS011;8783;52.448;4.638;2023-12-20T05:23:05;11.85;;;2.40;;
17330;SDS011;8783;52.448;4.638;2023-12-20T05:25:31;6.40;;;2.00;;
17330;SDS011;8783;52.448;4.638;2023-12-20T05:27:57;10.15;;;2.17;;
17330;SDS011;8783;52.448;4.638;2023-12-20T05:30:23;10.38;;;2.50;;
17330;SDS011;8783;52.448;4.638;2023-12-20T05:32:48;8.02;;;2.10;;
17330;SDS011;8783;52.448;4.638;2023-12-20T05:35:14;10.02;;;2.33;;
17330;SDS011;8783;52.448;4.638;2023-12-20T05:37:40;8.27;;;1.90;;
17330;SDS011;8783;52.448;4.638;2023-12-20T05:40:06;11.48;;;2.60;;
17330;SDS011;8783;52.448;4.638;2023-12-20T05:42:35;11.93;;;2.63;;
17330;SDS011;8783;52.448;4.638;2023-12-20T05:45:01;13.23;;;2.95;;
17330;SDS011;8783;52.448;4.638;2023-12-20T05:47:27;10.98;;;2.50;;
17330;SDS011;8783;52.448;4.638;2023-12-20T05:49:52;9.90;;;2.40;;
17330;SDS011;8783;52.448;4.638;2023-12-20T05:52:18;10.40;;;2.70;;
17330;SDS011;8783;52.448;4.638;2023-12-20T05:54:44;9.63;;;2.03;;
17330;SDS011;8783;52.448;4.638;2023-12-20T05:57:09;19.65;;;2.75;;
17330;SDS011;8783;52.448;4.638;2023-12-20T05:59:35;13.30;;;2.55;;
17330;SDS011;8783;52.448;4.638;2023-12-20T06:02:00;11.98;;;2.38;;
17330;SDS011;8783;52.448;4.638;2023-12-20T06:04:26;8.50;;;2.35;;
17330;SDS011;8783;52.448;4.638;2023-12-20T06:06:51;11.43;;;2.92;;
17330;SDS011;8783;52.448;4.638;2023-12-20T06:09:17;10.02;;;2.25;;
17330;SDS011;8783;52.448;4.638;2023-12-20T06:11:42;9.88;;;2.50;;
17330;SDS011;8783;52.448;4.638;2023-12-20T06:14:08;7.57;;;2.40;;
17330;SDS011;8783;52.448;4.638;2023-12-20T06:16:34;11.50;;;2.45;;
17330;SDS011;8783;52.448;4.638;2023-12-20T06:18:59;6.35;;;1.90;;
17330;SDS011;8783;52.448;4.638;2023-12-20T06:21:25;8.75;;;2.60;;
17330;SDS011;8783;52.448;4.638;2023-12-20T06:23:50;8.75;;;2.53;;
17330;SDS011;8783;52.448;4.638;2023-12-20T06:26:16;9.20;;;2.22;;
17330;SDS011;8783;52.448;4.638;2023-12-20T06:28:41;12.20;;;2.30;;
17330;SDS011;8783;52.448;4.638;2023-12-20T06:31:07;10.02;;;2.25;;
17330;SDS011;8783;52.448;4.638;2023-12-20T06:33:33;9.82;;;2.35;;
17330;SDS011;8783;52.448;4.638;2023-12-20T06:35:59;13.27;;;2.78;;
17330;SDS011;8783;52.448;4.638;2023-12-20T06:38:25;14.45;;;2.60;;
17330;SDS011;8783;52.448;4.638;2023-12-20T06:40:50;11.05;;;2.17;;
17330;SDS011;8783;52.448;4.638;2023-12-20T06:43:16;10.68;;;2.30;;
17330;SDS011;8783;52.448;4.638;2023-12-20T06:45:41;9.32;;;2.25;;
17330;SDS011;8783;52.448;4.638;2023-12-20T06:48:07;10.80;;;2.20;;
17330;SDS011;8783;52.448;4.638;2023-12-20T06:50:33;8.52;;;2.50;;
17330;SDS011;8783;52.448;4.638;2023-12-20T06:52:58;10.82;;;2.25;;
17330;SDS011;8783;52.448;4.638;2023-12-20T06:55:24;8.45;;;2.17;;
17330;SDS011;8783;52.448;4.638;2023-12-20T06:57:49;11.52;;;3.15;;
17330;SDS011;8783;52.448;4.638;2023-12-20T07:00:15;10.25;;;2.42;;
17330;SDS011;8783;52.448;4.638;2023-12-20T07:02:41;11.52;;;3.05;;
17330;SDS011;8783;52.448;4.638;2023-12-20T07:05:07;14.55;;;3.00;;
17330;SDS011;8783;52.448;4.638;2023-12-20T07:07:32;17.50;;;3.53;;
17330;SDS011;8783;52.448;4.638;2023-12-20T07:09:58;12.45;;;3.00;;
17330;SDS011;8783;52.448;4.638;2023-12-20T07:12:23;14.73;;;2.90;;
17330;SDS011;8783;52.448;4.638;2023-12-20T07:14:49;11.32;;;2.85;;
17330;SDS011;8783;52.448;4.638;2023-12-20T07:17:14;10.90;;;2.80;;
17330;SDS011;8783;52.448;4.638;2023-12-20T07:19:41;12.95;;;3.65;;
17330;SDS011;8783;52.448;4.638;2023-12-20T07:22:07;13.32;;;2.90;;
17330;SDS011;8783;52.448;4.638;2023-12-20T07:24:33;12.25;;;2.72;;
17330;SDS011;8783;52.448;4.638;2023-12-20T07:26:59;12.90;;;2.97;;
17330;SDS011;8783;52.448;4.638;2023-12-20T07:29:25;12.52;;;3.28;;
17330;SDS011;8783;52.448;4.638;2023-12-20T07:31:52;15.20;;;3.60;;
17330;SDS011;8783;52.448;4.638;2023-12-20T07:34:18;14.50;;;3.28;;
17330;SDS011;8783;52.448;4.638;2023-12-20T07:36:44;11.40;;;2.80;;
17330;SDS011;8783;52.448;4.638;2023-12-20T07:39:10;12.77;;;3.30;;
17330;SDS011;8783;52.448;4.638;2023-12-20T07:41:36;15.75;;;3.05;;
17330;SDS011;8783;52.448;4.638;2023-12-20T07:44:01;10.57;;;2.90;;
17330;SDS011;8783;52.448;4.638;2023-12-20T07:46:28;14.52;;;3.55;;
17330;SDS011;8783;52.448;4.638;2023-12-20T07:48:54;16.65;;;3.78;;
17330;SDS011;8783;52.448;4.638;2023-12-20T07:51:20;13.00;;;2.85;;
17330;SDS011;8783;52.448;4.638;2023-12-20T07:53:51;11.98;;;3.42;;
17330;SDS011;8783;52.448;4.638;2023-12-20T07:56:20;12.65;;;2.75;;
17330;SDS011;8783;52.448;4.638;2023-12-20T07:58:48;12.43;;;3.63;;
17330;SDS011;8783;52.448;4.638;2023-12-20T08:01:17;16.02;;;2.95;;
17330;SDS011;8783;52.448;4.638;2023-12-20T08:03:43;11.25;;;3.10;;
17330;SDS011;8783;52.448;4.638;2023-12-20T08:06:09;25.23;;;4.25;;
17330;SDS011;8783;52.448;4.638;2023-12-20T08:08:37;24.42;;;5.53;;
17330;SDS011;8783;52.448;4.638;2023-12-20T08:11:03;25.55;;;4.53;;
17330;SDS011;8783;52.448;4.638;2023-12-20T08:13:31;24.50;;;5.20;;
17330;SDS011;8783;52.448;4.638;2023-12-20T08:15:57;22.58;;;5.13;;
17330;SDS011;8783;52.448;4.638;2023-12-20T08:18:23;19.83;;;4.47;;
17330;SDS011;8783;52.448;4.638;2023-12-20T08:20:51;17.55;;;3.90;;
17330;SDS011;8783;52.448;4.638;2023-12-20T08:23:20;21.40;;;4.82;;
17330;SDS011;8783;52.448;4.638;2023-12-20T08:25:49;16.88;;;4.10;;
17330;SDS011;8783;52.448;4.638;2023-12-20T08:28:14;16.67;;;4.32;;
17330;SDS011;8783;52.448;4.638;2023-12-20T08:30:40;14.57;;;3.85;;
17330;SDS011;8783;52.448;4.638;2023-12-20T08:33:06;13.85;;;3.78;;
17330;SDS011;8783;52.448;4.638;2023-12-20T08:35:36;11.27;;;3.42;;
17330;SDS011;8783;52.448;4.638;2023-12-20T08:38:02;14.70;;;3.90;;
17330;SDS011;8783;52.448;4.638;2023-12-20T08:40:29;19.75;;;3.95;;
17330;SDS011;8783;52.448;4.638;2023-12-20T08:42:54;15.55;;;3.97;;
17330;SDS011;8783;52.448;4.638;2023-12-20T08:45:20;17.13;;;4.10;;
17330;SDS011;8783;52.448;4.638;2023-12-20T08:47:46;15.77;;;4.22;;
17330;SDS011;8783;52.448;4.638;2023-12-20T08:50:12;17.70;;;4.00;;
17330;SDS011;8783;52.448;4.638;2023-12-20T08:52:37;16.20;;;4.38;;
17330;SDS011;8783;52.448;4.638;2023-12-20T08:55:06;15.85;;;3.83;;
17330;SDS011;8783;52.448;4.638;2023-12-20T08:57:32;9.80;;;3.30;;
17330;SDS011;8783;52.448;4.638;2023-12-20T08:59:58;12.32;;;3.10;;
17330;SDS011;8783;52.448;4.638;2023-12-20T09:02:24;12.90;;;3.28;;
17330;SDS011;8783;52.448;4.638;2023-12-20T09:04:50;15.35;;;3.03;;
17330;SDS011;8783;52.448;4.638;2023-12-20T09:07:22;12.82;;;3.60;;
17330;SDS011;8783;52.448;4.638;2023-12-20T09:09:52;16.83;;;4.13;;
17330;SDS011;8783;52.448;4.638;2023-12-20T09:12:18;14.52;;;3.22;;
17330;SDS011;8783;52.448;4.638;2023-12-20T09:14:45;15.93;;;3.85;;
17330;SDS011;8783;52.448;4.638;2023-12-20T09:17:15;16.35;;;3.88;;
17330;SDS011;8783;52.448;4.638;2023-12-20T09:19:41;12.80;;;3.50;;
17330;SDS011;8783;52.448;4.638;2023-12-20T09:22:09;16.17;;;3.95;;
17330;SDS011;8783;52.448;4.638;2023-12-20T09:24:34;14.82;;;3.92;;
17330;SDS011;8783;52.448;4.638;2023-12-20T09:27:00;13.27;;;4.05;;
17330;SDS011;8783;52.448;4.638;2023-12-20T09:29:26;10.93;;;3.22;;
17330;SDS011;8783;52.448;4.638;2023-12-20T09:31:51;14.98;;;3.70;;
17330;SDS011;8783;52.448;4.638;2023-12-20T09:34:17;14.35;;;3.10;;
17330;SDS011;8783;52.448;4.638;2023-12-20T09:36:46;15.57;;;3.78;;
17330;SDS011;8783;52.448;4.638;2023-12-20T09:39:15;14.23;;;3.50;;
17330;SDS011;8783;52.448;4.638;2023-12-20T09:41:45;15.90;;;3.63;;
17330;SDS011;8783;52.448;4.638;2023-12-20T09:44:16;13.23;;;3.50;;
17330;SDS011;8783;52.448;4.638;2023-12-20T09:46:45;9.50;;;3.65;;
17330;SDS011;8783;52.448;4.638;2023-12-20T09:49:14;13.77;;;3.30;;
17330;SDS011;8783;52.448;4.638;2023-12-20T09:51:46;12.43;;;3.90;;
17330;SDS011;8783;52.448;4.638;2023-12-20T09:54:13;14.13;;;4.22;;
17330;SDS011;8783;52.448;4.638;2023-12-20T09:56:41;13.80;;;3.22;;
17330;SDS011;8783;52.448;4.638;2023-12-20T09:59:07;10.15;;;3.03;;
17330;SDS011;8783;52.448;4.638;2023-12-20T10:01:33;12.90;;;3.88;;
17330;SDS011;8783;52.448;4.638;2023-12-20T10:04:00;14.95;;;4.00;;
17330;SDS011;8783;52.448;4.638;2023-12-20T10:06:31;12.45;;;3.72;;
17330;SDS011;8783;52.448;4.638;2023-12-20T10:08:57;11.88;;;3.50;;
17330;SDS011;8783;52.448;4.638;2023-12-20T10:11:23;15.43;;;3.20;;
17330;SDS011;8783;52.448;4.638;2023-12-20T10:13:49;10.25;;;3.47;;
17330;SDS011;8783;52.448;4.638;2023-12-20T10:16:15;11.07;;;3.13;;
17330;SDS011;8783;52.448;4.638;2023-12-20T10:18:41;12.70;;;3.65;;
17330;SDS011;8783;52.448;4.638;2023-12-20T10:21:07;10.30;;;3.08;;
17330;SDS011;8783;52.448;4.638;2023-12-20T10:23:35;10.77;;;2.80;;
17330;SDS011;8783;52.448;4.638;2023-12-20T10:26:01;8.80;;;2.70;;
17330;SDS011;8783;52.448;4.638;2023-12-20T10:28:28;10.95;;;2.72;;
17330;SDS011;8783;52.448;4.638;2023-12-20T10:30:59;9.45;;;2.88;;
17330;SDS011;8783;52.448;4.638;2023-12-20T10:33:28;11.27;;;3.08;;
17330;SDS011;8783;52.448;4.638;2023-12-20T10:35:55;14.70;;;3.13;;
17330;SDS011;8783;52.448;4.638;2023-12-20T10:38:21;13.00;;;3.10;;
17330;SDS011;8783;52.448;4.638;2023-12-20T10:40:47;11.90;;;3.50;;
17330;SDS011;8783;52.448;4.638;2023-12-20T10:43:14;12.43;;;3.30;;
17330;SDS011;8783;52.448;4.638;2023-12-20T10:45:41;11.43;;;2.78;;
17330;SDS011;8783;52.448;4.638;2023-12-20T10:48:09;12.38;;;2.92;;
17330;SDS011;8783;52.448;4.638;2023-12-20T10:50:36;11.07;;;2.72;;
17330;SDS011;8783;52.448;4.638;2023-12-20T10:53:06;10.52;;;2.83;;
17330;SDS011;8783;52.448;4.638;2023-12-20T10:55:32;12.43;;;2.92;;
17330;SDS011;8783;52.448;4.638;2023-12-20T10:58:03;10.57;;;3.35;;
17330;SDS011;8783;52.448;4.638;2023-12-20T11:00:32;12.25;;;3.13;;
17330;SDS011;8783;52.448;4.638;2023-12-20T11:03:05;9.02;;;2.45;;
17330;SDS011;8783;52.448;4.638;2023-12-20T11:08:51;10.93;;;2.85;;
17330;SDS011;8783;52.448;4.638;2023-12-20T11:11:19;9.85;;;2.67;;
17330;SDS011;8783;52.448;4.638;2023-12-20T11:14:00;9.95;;;3.05;;
17330;SDS011;8783;52.448;4.638;2023-12-20T11:16:35;10.23;;;2.67;;
17330;SDS011;8783;52.448;4.638;2023-12-20T11:19:06;14.32;;;3.10;;
17330;SDS011;8783;52.448;4.638;2023-12-20T11:21:32;7.65;;;2.55;;
17330;SDS011;8783;52.448;4.638;2023-12-20T11:24:01;10.25;;;2.67;;
17330;SDS011;8783;52.448;4.638;2023-12-20T11:26:28;13.98;;;3.13;;
17330;SDS011;8783;52.448;4.638;2023-12-20T11:29:02;12.20;;;3.60;;
17330;SDS011;8783;52.448;4.638;2023-12-20T11:31:55;10.95;;;2.65;;
17330;SDS011;8783;52.448;4.638;2023-12-20T11:34:21;7.07;;;2.25;;
17330;SDS011;8783;52.448;4.638;2023-12-20T11:36:47;11.40;;;3.00;;
17330;SDS011;8783;52.448;4.638;2023-12-20T11:39:17;7.20;;;2.47;;
17330;SDS011;8783;52.448;4.638;2023-12-20T11:41:46;10.27;;;2.80;;
17330;SDS011;8783;52.448;4.638;2023-12-20T11:44:13;13.13;;;3.10;;
17330;SDS011;8783;52.448;4.638;2023-12-20T11:46:42;10.32;;;2.40;;
17330;SDS011;8783;52.448;4.638;2023-12-20T11:49:09;10.27;;;2.88;;
17330;SDS011;8783;52.448;4.638;2023-12-20T11:51:34;13.85;;;2.92;;
17330;SDS011;8783;52.448;4.638;2023-12-20T11:54:00;14.38;;;2.60;;
17330;SDS011;8783;52.448;4.638;2023-12-20T11:56:26;11.18;;;2.70;;
17330;SDS011;8783;52.448;4.638;2023-12-20T11:58:51;7.32;;;2.05;;
17330;SDS011;8783;52.448;4.638;2023-12-20T12:01:19;10.80;;;2.60;;
17330;SDS011;8783;52.448;4.638;2023-12-20T12:03:45;11.95;;;2.80;;
17330;SDS011;8783;52.448;4.638;2023-12-20T12:06:11;11.15;;;2.88;;
17330;SDS011;8783;52.448;4.638;2023-12-20T12:08:38;9.63;;;2.58;;
17330;SDS011;8783;52.448;4.638;2023-12-20T12:11:03;11.13;;;2.78;;
17330;SDS011;8783;52.448;4.638;2023-12-20T12:13:29;9.93;;;2.47;;
17330;SDS011;8783;52.448;4.638;2023-12-20T12:15:58;13.32;;;2.97;;
17330;SDS011;8783;52.448;4.638;2023-12-20T12:18:24;14.32;;;2.70;;
17330;SDS011;8783;52.448;4.638;2023-12-20T12:20:50;8.93;;;2.35;;
17330;SDS011;8783;52.448;4.638;2023-12-20T12:23:24;11.77;;;2.50;;
17330;SDS011;8783;52.448;4.638;2023-12-20T12:25:50;10.07;;;2.60;;
17330;SDS011;8783;52.448;4.638;2023-12-20T12:28:20;10.43;;;2.45;;
17330;SDS011;8783;52.448;4.638;2023-12-20T12:30:59;9.43;;;2.50;;
17330;SDS011;8783;52.448;4.638;2023-12-20T12:33:25;8.60;;;2.25;;
17330;SDS011;8783;52.448;4.638;2023-12-20T12:35:54;11.07;;;2.95;;
17330;SDS011;8783;52.448;4.638;2023-12-20T12:38:20;10.60;;;2.50;;
17330;SDS011;8783;52.448;4.638;2023-12-20T12:40:46;8.80;;;2.38;;
17330;SDS011;8783;52.448;4.638;2023-12-20T12:43:12;8.02;;;2.08;;
17330;SDS011;8783;52.448;4.638;2023-12-20T12:45:38;8.35;;;1.90;;
17330;SDS011;8783;52.448;4.638;2023-12-20T12:48:04;9.95;;;2.30;;
17330;SDS011;8783;52.448;4.638;2023-12-20T12:50:30;9.63;;;2.03;;
17330;SDS011;8783;52.448;4.638;2023-12-20T12:52:56;10.48;;;2.70;;
17330;SDS011;8783;52.448;4.638;2023-12-20T12:55:22;10.90;;;2.30;;
17330;SDS011;8783;52.448;4.638;2023-12-20T12:57:48;77.65;;;31.60;;
17330;SDS011;8783;52.448;4.638;2023-12-20T13:00:13;425.92;;;147.40;;
17330;SDS011;8783;52.448;4.638;2023-12-20T13:02:39;963.00;;;524.42;;
17330;SDS011;8783;52.448;4.638;2023-12-20T13:05:08;825.55;;;412.00;;
17330;SDS011;8783;52.448;4.638;2023-12-20T13:07:34;515.35;;;200.05;;
17330;SDS011;8783;52.448;4.638;2023-12-20T13:10:00;403.48;;;159.02;;
17330;SDS011;8783;52.448;4.638;2023-12-20T13:12:26;277.75;;;104.97;;
17330;SDS011;8783;52.448;4.638;2023-12-20T13:14:51;243.25;;;91.30;;
17330;SDS011;8783;52.448;4.638;2023-12-20T13:17:18;176.30;;;73.45;;
17330;SDS011;8783;52.448;4.638;2023-12-20T13:19:44;149.00;;;55.25;;
17330;SDS011;8783;52.448;4.638;2023-12-20T13:22:10;131.25;;;47.58;;
17330;SDS011;8783;52.448;4.638;2023-12-20T13:24:35;98.35;;;37.58;;
17330;SDS011;8783;52.448;4.638;2023-12-20T13:27:01;89.20;;;32.35;;
17330;SDS011;8783;52.448;4.638;2023-12-20T13:29:27;73.53;;;27.90;;
17330;SDS011;8783;52.448;4.638;2023-12-20T13:31:53;77.00;;;26.45;;
17330;SDS011;8783;52.448;4.638;2023-12-20T13:34:18;455.95;;;157.35;;
17330;SDS011;8783;52.448;4.638;2023-12-20T13:36:44;298.65;;;102.65;;
17330;SDS011;8783;52.448;4.638;2023-12-20T13:39:12;786.40;;;404.25;;
17330;SDS011;8783;52.448;4.638;2023-12-20T13:41:38;489.20;;;185.02;;
17330;SDS011;8783;52.448;4.638;2023-12-20T13:44:03;453.48;;;159.02;;
17330;SDS011;8783;52.448;4.638;2023-12-20T13:46:29;351.83;;;125.03;;
17330;SDS011;8783;52.448;4.638;2023-12-20T13:48:55;268.13;;;95.15;;
17330;SDS011;8783;52.448;4.638;2023-12-20T13:51:21;224.63;;;83.47;;
17330;SDS011;8783;52.448;4.638;2023-12-20T13:53:46;192.27;;;66.13;;
17330;SDS011;8783;52.448;4.638;2023-12-20T13:56:13;160.93;;;58.08;;
17330;SDS011;8783;52.448;4.638;2023-12-20T13:58:43;148.02;;;53.58;;
17330;SDS011;8783;52.448;4.638;2023-12-20T14:01:09;130.73;;;46.75;;
17330;SDS011;8783;52.448;4.638;2023-12-20T14:03:35;128.20;;;43.60;;
17330;SDS011;8783;52.448;4.638;2023-12-20T14:06:01;107.68;;;40.45;;
17330;SDS011;8783;52.448;4.638;2023-12-20T14:08:27;94.30;;;35.78;;
17330;SDS011;8783;52.448;4.638;2023-12-20T14:10:52;98.45;;;35.55;;
17330;SDS011;8783;52.448;4.638;2023-12-20T14:13:18;85.18;;;31.17;;
17330;SDS011;8783;52.448;4.638;2023-12-20T14:15:44;70.68;;;27.15;;
17330;SDS011;8783;52.448;4.638;2023-12-20T14:18:10;77.40;;;27.13;;
17330;SDS011;8783;52.448;4.638;2023-12-20T14:20:37;321.55;;;120.40;;
17330;SDS011;8783;52.448;4.638;2023-12-20T14:23:04;573.10;;;196.18;;
17330;SDS011;8783;52.448;4.638;2023-12-20T14:25:30;349.00;;;107.40;;
17330;SDS011;8783;52.448;4.638;2023-12-20T14:27:58;320.77;;;93.80;;
17330;SDS011;8783;52.448;4.638;2023-12-20T14:30:25;307.40;;;91.80;;
17330;SDS011;8783;52.448;4.638;2023-12-20T14:32:53;283.10;;;82.22;;
17330;SDS011;8783;52.448;4.638;2023-12-20T14:35:22;252.68;;;84.88;;
17330;SDS011;8783;52.448;4.638;2023-12-20T14:37:47;222.68;;;68.78;;
17330;SDS011;8783;52.448;4.638;2023-12-20T14:40:13;116.80;;;37.45;;
17330;SDS011;8783;52.448;4.638;2023-12-20T14:42:47;81.22;;;25.80;;
17330;SDS011;8783;52.448;4.638;2023-12-20T14:45:14;75.25;;;24.45;;
17330;SDS011;8783;52.448;4.638;2023-12-20T14:47:41;69.95;;;22.55;;
17330;SDS011;8783;52.448;4.638;2023-12-20T14:50:12;65.65;;;21.77;;